Time;durP1;ratioP1;P1;durP2;ratioP2;P2;SDS_P1;SDS_P2;PMS_P1;PMS_P2;Temp;Humidity;BMP_temperature;BMP_pressure;BME280_temperature;BME280_humidity;BME280_pressure;Samples;Min_cycle;Max_cycle;Signal;HPM_P1;HPM_P2
2021/08/05 00:00:45;;;;;;;10.70;7.45;;;14.30;99.90;;;;;;5058467;28;20041;-62
2021/08/05 00:03:11;;;;;;;12.85;9.50;;;14.40;99.90;;;;;;5062912;28;20061;-62
2021/08/05 00:05:37;;;;;;;11.27;9.63;;;14.30;99.90;;;;;;5055253;28;20040;-62
2021/08/05 00:08:04;;;;;;;10.80;8.80;;;14.30;99.90;;;;;;5062744;28;20480;-62
2021/08/05 00:10:30;;;;;;;11.00;9.43;;;14.30;99.90;;;;;;5055623;28;20072;-62
2021/08/05 00:12:56;;;;;;;12.30;10.00;;;14.30;99.90;;;;;;5062167;28;20041;-62
2021/08/05 00:15:22;;;;;;;14.18;11.88;;;14.30;99.90;;;;;;5054880;28;20045;-62
2021/08/05 00:17:48;;;;;;;13.00;10.35;;;14.20;99.90;;;;;;5062076;28;20096;-62
2021/08/05 00:20:14;;;;;;;13.32;10.27;;;14.30;99.90;;;;;;5054235;28;20060;-62
2021/08/05 00:22:40;;;;;;;10.02;7.90;;;14.20;99.90;;;;;;5062105;28;20056;-62
2021/08/05 00:25:06;;;;;;;10.27;7.63;;;14.30;99.90;;;;;;5055793;28;20041;-62
2021/08/05 00:27:34;;;;;;;8.55;6.95;;;14.30;99.90;;;;;;5060055;28;20056;-62
2021/08/05 00:30:00;;;;;;;10.13;6.88;;;14.30;99.90;;;;;;5057556;28;20183;-62
2021/08/05 00:32:26;;;;;;;8.52;6.45;;;14.30;99.90;;;;;;5057975;28;20044;-62
2021/08/05 00:34:52;;;;;;;7.43;6.65;;;14.20;99.90;;;;;;5059345;28;20068;-62
2021/08/05 00:37:17;;;;;;;9.70;6.38;;;14.20;99.90;;;;;;5057534;28;20038;-62
2021/08/05 00:39:43;;;;;;;6.97;6.25;;;14.20;99.90;;;;;;5060736;28;20076;-62
2021/08/05 00:42:09;;;;;;;10.20;6.32;;;14.20;99.90;;;;;;5055048;28;20056;-62
2021/08/05 00:44:36;;;;;;;7.15;6.15;;;14.10;99.90;;;;;;5062241;28;20043;-62
2021/08/05 00:47:04;;;;;;;6.53;5.90;;;14.10;99.90;;;;;;5053091;28;20056;-62
2021/08/05 00:49:30;;;;;;;6.60;5.82;;;14.10;99.90;;;;;;5062303;28;20049;-62
2021/08/05 00:51:56;;;;;;;6.95;5.53;;;14.10;99.90;;;;;;5046707;28;20102;-62
2021/08/05 00:54:22;;;;;;;7.43;5.68;;;14.00;99.90;;;;;;5054875;28;20041;-62
2021/08/05 00:56:47;;;;;;;10.50;7.45;;;14.00;99.90;;;;;;5049314;28;20064;-62
2021/08/05 00:59:14;;;;;;;8.00;6.85;;;14.00;99.90;;;;;;5061725;28;20120;-62
2021/08/05 01:01:45;;;;;;;9.23;6.38;;;13.90;99.90;;;;;;5061555;28;20068;-62
2021/08/05 01:04:11;;;;;;;8.60;6.45;;;13.80;99.90;;;;;;5056114;28;20045;-62
2021/08/05 01:07:14;;;;;;;8.30;7.45;;;13.80;99.90;;;;;;5049063;28;20108;-62
2021/08/05 01:10:01;;;;;;;9.48;7.13;;;13.80;99.90;;;;;;5055492;28;20060;-62
2021/08/05 01:13:04;;;;;;;9.70;6.13;;;13.80;99.90;;;;;;5049980;28;20087;-62
2021/08/05 01:15:31;;;;;;;8.52;6.88;;;13.80;99.90;;;;;;5057134;28;20107;-62
2021/08/05 01:18:00;;;;;;;9.23;6.03;;;13.80;99.90;;;;;;5044188;28;20045;-62
2021/08/05 01:20:29;;;;;;;8.23;6.80;;;13.70;99.90;;;;;;5057716;28;21987;-62
2021/08/05 01:23:07;;;;;;;6.35;5.70;;;13.70;99.90;;;;;;5060884;28;20049;-62
2021/08/05 01:25:54;;;;;;;7.95;5.78;;;13.70;99.90;;;;;;5058278;28;20077;-62
2021/08/05 01:28:20;;;;;;;7.97;5.55;;;13.80;99.90;;;;;;5057989;28;20037;-62
2021/08/05 01:30:49;;;;;;;8.98;6.38;;;13.60;99.90;;;;;;5058557;28;20071;-62
2021/08/05 01:33:18;;;;;;;8.35;5.78;;;13.60;99.90;;;;;;5059586;28;20045;-62
2021/08/05 01:35:44;;;;;;;7.47;6.55;;;13.50;99.90;;;;;;5057113;28;20651;-62
2021/08/05 01:38:14;;;;;;;8.20;6.55;;;13.40;99.90;;;;;;5075424;28;20061;-62
2021/08/05 01:40:41;;;;;;;7.50;5.75;;;13.30;99.90;;;;;;5055692;28;20060;-62
2021/08/05 01:43:07;;;;;;;9.52;7.07;;;13.30;99.90;;;;;;5061827;28;20051;-62
2021/08/05 01:45:34;;;;;;;8.88;6.78;;;13.20;99.90;;;;;;5054870;28;20045;-62
2021/08/05 01:48:01;;;;;;;8.88;7.18;;;13.20;99.90;;;;;;5062702;28;20091;-62
2021/08/05 01:50:27;;;;;;;10.73;6.70;;;13.20;99.90;;;;;;5049509;28;20049;-61
2021/08/05 01:52:54;;;;;;;11.98;7.20;;;13.10;99.90;;;;;;5056775;28;20052;-62
2021/08/05 01:55:20;;;;;;;11.02;7.80;;;13.20;99.90;;;;;;5049399;28;20045;-62
2021/08/05 01:57:45;;;;;;;11.65;8.32;;;13.20;99.90;;;;;;5056736;28;20109;-62
2021/08/05 02:00:12;;;;;;;9.73;8.10;;;13.10;99.90;;;;;;5050537;28;20048;-62
2021/08/05 02:02:38;;;;;;;12.70;7.60;;;13.10;99.90;;;;;;5060297;28;20098;-62
2021/08/05 02:05:26;;;;;;;8.50;7.43;;;13.00;99.90;;;;;;5052997;28;20493;-61
2021/08/05 02:08:02;;;;;;;10.45;6.97;;;12.90;99.90;;;;;;5059817;28;20044;-62
2021/08/05 02:10:33;;;;;;;10.40;7.88;;;12.90;99.90;;;;;;5052698;28;20045;-62
2021/08/05 02:13:20;;;;;;;8.98;7.68;;;12.90;99.90;;;;;;5059558;28;20049;-62
2021/08/05 02:15:53;;;;;;;9.50;8.13;;;12.80;99.90;;;;;;5053062;28;20073;-62
2021/08/05 02:18:22;;;;;;;9.25;7.57;;;12.70;99.90;;;;;;5059233;28;20044;-62
2021/08/05 02:20:48;;;;;;;12.10;8.85;;;12.70;99.90;;;;;;5053623;28;20045;-62
2021/08/05 02:23:15;;;;;;;9.30;8.30;;;12.70;99.90;;;;;;5061750;28;20049;-62
2021/08/05 02:25:42;;;;;;;11.87;8.97;;;12.70;99.90;;;;;;5051562;28;20120;-61
2021/08/05 02:28:09;;;;;;;9.88;8.63;;;12.70;99.90;;;;;;5058975;28;20311;-62
2021/08/05 02:30:37;;;;;;;9.43;7.38;;;12.70;99.90;;;;;;5051606;28;20048;-62
2021/08/05 02:33:04;;;;;;;10.40;7.38;;;12.70;99.90;;;;;;5058305;28;20305;-62
2021/08/05 02:35:36;;;;;;;9.80;6.80;;;12.70;99.90;;;;;;5051135;28;20052;-62
2021/08/05 02:38:03;;;;;;;8.45;7.38;;;12.70;99.90;;;;;;5058494;28;20045;-61
2021/08/05 02:40:31;;;;;;;8.30;7.43;;;12.70;99.90;;;;;;5051755;28;20061;-61
2021/08/05 02:42:59;;;;;;;9.43;7.97;;;12.60;99.90;;;;;;5057369;28;20047;-62
2021/08/05 02:45:25;;;;;;;10.05;7.40;;;12.60;99.90;;;;;;5064686;28;20048;-62
2021/08/05 02:47:53;;;;;;;10.48;7.85;;;12.50;99.90;;;;;;5057485;28;20040;-62
2021/08/05 02:50:19;;;;;;;10.57;8.88;;;12.50;99.90;;;;;;5050845;28;20041;-62
2021/08/05 02:52:45;;;;;;;11.82;8.63;;;12.50;99.90;;;;;;5060743;28;20091;-62
2021/08/05 02:55:11;;;;;;;9.13;7.82;;;12.40;99.90;;;;;;5060282;28;20037;-62
2021/08/05 02:57:37;;;;;;;12.00;8.75;;;12.50;99.90;;;;;;5058068;28;20049;-62
2021/08/05 03:00:05;;;;;;;10.18;8.80;;;12.40;99.90;;;;;;5057590;28;20461;-62
2021/08/05 03:02:32;;;;;;;13.07;8.75;;;12.70;99.90;;;;;;5058865;28;20100;-62
2021/08/05 03:04:58;;;;;;;10.57;8.18;;;12.70;99.90;;;;;;5057730;28;20049;-62
2021/08/05 03:07:25;;;;;;;12.40;7.90;;;12.70;99.90;;;;;;5060867;28;20540;-62
2021/08/05 03:09:51;;;;;;;9.55;8.38;;;12.60;99.90;;;;;;5060158;28;20045;-62
2021/08/05 03:12:17;;;;;;;10.43;8.10;;;12.60;99.90;;;;;;5053736;28;20123;-62
2021/08/05 03:14:42;;;;;;;12.75;8.45;;;12.50;99.90;;;;;;5060917;28;20055;-61
2021/08/05 03:17:08;;;;;;;11.88;10.18;;;12.50;99.90;;;;;;5053206;28;20068;-61
2021/08/05 03:19:34;;;;;;;12.20;9.98;;;12.50;99.90;;;;;;5059929;28;20049;-62
2021/08/05 03:22:01;;;;;;;13.73;10.65;;;12.40;99.90;;;;;;5054885;28;20101;-62
2021/08/05 03:24:26;;;;;;;13.88;11.45;;;12.50;99.90;;;;;;5063352;28;20045;-61
2021/08/05 03:26:52;;;;;;;14.27;11.63;;;12.60;99.90;;;;;;5051616;28;20048;-62
2021/08/05 03:29:18;;;;;;;15.55;10.75;;;12.70;99.90;;;;;;5058980;28;20048;-61
2021/08/05 03:31:44;;;;;;;16.85;10.93;;;12.60;99.90;;;;;;5053985;28;20052;-62
2021/08/05 03:34:09;;;;;;;18.02;12.75;;;12.60;99.90;;;;;;5058859;28;20500;-62
2021/08/05 03:36:35;;;;;;;20.10;13.85;;;12.70;99.90;;;;;;5050149;28;20104;-62
2021/08/05 03:39:01;;;;;;;21.08;13.18;;;12.70;99.90;;;;;;5057426;28;20056;-62
2021/08/05 03:41:27;;;;;;;19.88;13.15;;;12.80;99.90;;;;;;5055959;28;20131;-61
2021/08/05 03:43:52;;;;;;;18.13;12.90;;;12.80;99.90;;;;;;5057151;28;20071;-61
2021/08/05 03:46:18;;;;;;;16.83;13.18;;;12.80;99.90;;;;;;5063811;28;20109;-61
2021/08/05 03:48:44;;;;;;;17.02;12.15;;;12.80;99.90;;;;;;5052672;28;20044;-61
2021/08/05 03:51:10;;;;;;;21.20;13.15;;;12.80;99.90;;;;;;5063621;28;20062;-62
2021/08/05 03:53:35;;;;;;;16.85;12.95;;;12.80;99.90;;;;;;5063574;28;20048;-61
2021/08/05 03:56:01;;;;;;;21.48;13.70;;;12.80;99.90;;;;;;5062852;28;20041;-61
2021/08/05 03:58:27;;;;;;;18.90;13.68;;;12.90;99.90;;;;;;5057241;28;20047;-61
2021/08/05 04:00:53;;;;;;;19.25;14.25;;;12.90;99.90;;;;;;5062183;28;20068;-62
2021/08/05 04:03:20;;;;;;;20.63;14.43;;;12.80;99.90;;;;;;5053216;28;20047;-62
2021/08/05 04:05:46;;;;;;;19.85;15.05;;;12.80;99.90;;;;;;5060022;28;20062;-61
2021/08/05 04:08:11;;;;;;;20.20;15.38;;;12.80;99.90;;;;;;5060845;28;20547;-61
2021/08/05 04:10:37;;;;;;;28.30;16.13;;;12.80;99.90;;;;;;5055630;28;20052;-62
2021/08/05 04:13:03;;;;;;;21.15;15.40;;;12.80;99.90;;;;;;5061832;28;20468;-62
2021/08/05 04:15:32;;;;;;;19.08;14.93;;;12.80;99.90;;;;;;5055190;28;20100;-62
2021/08/05 04:17:58;;;;;;;21.38;14.13;;;12.70;99.90;;;;;;5059916;28;20037;-62
2021/08/05 04:20:23;;;;;;;22.23;14.23;;;12.80;99.90;;;;;;5063350;28;20060;-61
2021/08/05 04:22:49;;;;;;;21.75;15.40;;;12.70;99.90;;;;;;5059988;28;20140;-61
2021/08/05 04:25:16;;;;;;;22.80;16.67;;;12.70;99.90;;;;;;5053463;28;20056;-62
2021/08/05 04:27:42;;;;;;;19.08;14.90;;;12.80;99.90;;;;;;5060394;28;20049;-62
2021/08/05 04:30:11;;;;;;;21.77;14.85;;;12.80;99.90;;;;;;5053411;28;20109;-61
2021/08/05 04:32:37;;;;;;;21.70;15.00;;;12.90;99.90;;;;;;5060970;28;20044;-62
2021/08/05 04:35:04;;;;;;;19.35;15.38;;;12.90;99.90;;;;;;5052700;28;20044;-61
2021/08/05 04:37:30;;;;;;;18.88;14.95;;;13.00;99.90;;;;;;5059755;28;20068;-62
2021/08/05 04:39:57;;;;;;;19.00;14.85;;;12.90;99.90;;;;;;5052104;28;20500;-62
2021/08/05 04:42:23;;;;;;;19.75;16.60;;;12.90;99.90;;;;;;5062300;28;20060;-62
2021/08/05 04:44:49;;;;;;;19.08;16.02;;;13.10;99.90;;;;;;5055642;28;20071;-61
2021/08/05 04:47:15;;;;;;;23.55;16.67;;;13.10;99.90;;;;;;5058647;28;20535;-62
2021/08/05 04:49:41;;;;;;;18.58;15.55;;;13.20;99.90;;;;;;5052660;28;20045;-62
2021/08/05 04:52:06;;;;;;;21.67;15.93;;;13.30;99.90;;;;;;5062058;28;20090;-61
2021/08/05 04:54:34;;;;;;;17.13;14.15;;;13.40;99.90;;;;;;5053849;28;20054;-62
2021/08/05 04:57:01;;;;;;;18.75;15.40;;;13.50;99.90;;;;;;5056768;28;20044;-62
2021/08/05 04:59:27;;;;;;;20.13;14.35;;;13.70;99.90;;;;;;5055720;28;20104;-61
2021/08/05 05:01:53;;;;;;;20.73;13.57;;;13.80;99.90;;;;;;5054879;28;20046;-62
2021/08/05 05:04:20;;;;;;;16.00;14.10;;;14.00;99.90;;;;;;5057020;28;20105;-61
2021/08/05 05:06:46;;;;;;;18.15;14.70;;;14.10;99.90;;;;;;5052524;28;20056;-61
2021/08/05 05:09:11;;;;;;;17.42;13.10;;;14.20;99.90;;;;;;5061202;28;20049;-61
2021/08/05 05:11:37;;;;;;;17.02;13.43;;;14.40;99.90;;;;;;5060216;28;20122;-61
2021/08/05 05:14:03;;;;;;;16.35;13.55;;;14.50;99.90;;;;;;5055860;28;20049;-61
2021/08/05 05:16:30;;;;;;;14.95;13.02;;;14.60;99.90;;;;;;5061523;28;20048;-62
2021/08/05 05:18:56;;;;;;;21.85;12.52;;;14.70;99.90;;;;;;5055402;28;20075;-62
2021/08/05 05:21:22;;;;;;;15.50;12.98;;;14.80;99.90;;;;;;5061467;28;20045;-61
2021/08/05 05:23:48;;;;;;;15.18;12.70;;;15.00;99.90;;;;;;5053817;28;20042;-62
2021/08/05 05:26:14;;;;;;;14.32;11.85;;;15.10;99.90;;;;;;5061091;28;20056;-61
2021/08/05 05:28:40;;;;;;;16.80;12.60;;;15.20;99.90;;;;;;5054036;28;20045;-61
2021/08/05 05:31:06;;;;;;;16.98;12.77;;;15.40;99.90;;;;;;5060687;28;20047;-61
2021/08/05 05:33:32;;;;;;;15.70;12.35;;;15.40;99.90;;;;;;5054084;28;20045;-61
2021/08/05 05:35:58;;;;;;;20.38;14.18;;;15.50;99.90;;;;;;5063602;28;20074;-62
2021/08/05 05:38:24;;;;;;;17.95;13.35;;;15.60;99.90;;;;;;5056898;28;20061;-62
2021/08/05 05:40:50;;;;;;;17.35;13.25;;;15.80;99.90;;;;;;5063956;28;20063;-62
2021/08/05 05:43:16;;;;;;;20.50;13.95;;;15.90;99.90;;;;;;5056633;28;20123;-62
2021/08/05 05:45:43;;;;;;;18.58;14.02;;;15.90;99.90;;;;;;5063676;28;20076;-61
2021/08/05 05:48:10;;;;;;;17.42;14.05;;;16.00;99.90;;;;;;5056551;28;20398;-61
2021/08/05 05:50:37;;;;;;;18.30;12.82;;;16.10;99.90;;;;;;5063338;28;20090;-62
2021/08/05 05:53:03;;;;;;;17.15;12.40;;;16.20;99.90;;;;;;5056763;28;20101;-62
2021/08/05 05:55:29;;;;;;;18.95;14.10;;;16.30;99.90;;;;;;5065008;28;20060;-61
2021/08/05 05:58:15;;;;;;;18.60;12.55;;;16.30;99.90;;;;;;5054878;28;20136;-61
2021/08/05 06:00:41;;;;;;;17.27;12.88;;;16.40;99.90;;;;;;5062506;28;20049;-61
2021/08/05 06:03:06;;;;;;;15.15;12.13;;;16.30;99.90;;;;;;5065266;28;20067;-61
2021/08/05 06:05:34;;;;;;;14.13;12.43;;;16.40;99.90;;;;;;5064262;28;20068;-62
2021/08/05 06:07:59;;;;;;;16.25;12.35;;;16.40;99.90;;;;;;5059726;28;20045;-61
2021/08/05 06:10:27;;;;;;;17.23;12.32;;;16.40;99.90;;;;;;5053237;28;20136;-62
2021/08/05 06:12:53;;;;;;;14.93;12.13;;;16.40;99.90;;;;;;5064626;28;20075;-62
2021/08/05 06:15:19;;;;;;;15.07;12.35;;;16.40;99.90;;;;;;5065582;28;20060;-61
2021/08/05 06:17:45;;;;;;;19.00;12.63;;;16.40;99.90;;;;;;5061665;28;20041;-62
2021/08/05 06:20:13;;;;;;;14.65;12.35;;;16.50;99.90;;;;;;5061416;28;20411;-62
2021/08/05 06:22:40;;;;;;;11.85;10.65;;;16.50;99.90;;;;;;5057946;28;20057;-62
2021/08/05 06:25:07;;;;;;;13.43;10.93;;;16.60;99.90;;;;;;5066643;28;20041;-62
2021/08/05 06:27:32;;;;;;;12.05;10.10;;;16.70;99.90;;;;;;5066413;28;20105;-62
2021/08/05 06:29:58;;;;;;;13.77;10.50;;;16.70;99.90;;;;;;5065029;28;20075;-62
2021/08/05 06:32:25;;;;;;;13.30;10.40;;;16.80;99.90;;;;;;5059887;28;20041;-63
2021/08/05 06:34:51;;;;;;;12.27;9.98;;;16.80;99.90;;;;;;5061521;28;20044;-62
2021/08/05 06:37:16;;;;;;;14.38;9.88;;;16.80;99.90;;;;;;5062282;28;20041;-62
2021/08/05 06:39:42;;;;;;;16.52;10.10;;;16.90;99.90;;;;;;5061067;28;20047;-62
2021/08/05 06:42:08;;;;;;;14.52;9.43;;;16.90;99.90;;;;;;5064190;28;20104;-62
2021/08/05 06:44:37;;;;;;;12.85;9.27;;;17.00;99.90;;;;;;5063475;28;20536;-62
2021/08/05 06:47:05;;;;;;;14.48;9.75;;;16.90;99.90;;;;;;5059640;28;20041;-62
2021/08/05 06:49:31;;;;;;;13.73;9.60;;;16.90;99.90;;;;;;5061984;28;20040;-62
2021/08/05 06:51:57;;;;;;;11.65;9.48;;;17.00;99.90;;;;;;5061204;28;20029;-62
2021/08/05 06:54:23;;;;;;;10.90;8.43;;;17.00;99.90;;;;;;5062054;28;20037;-61
2021/08/05 06:56:48;;;;;;;11.63;7.82;;;17.00;99.90;;;;;;5062984;28;20045;-62
2021/08/05 06:59:14;;;;;;;14.05;10.10;;;17.00;99.90;;;;;;5062007;28;20060;-62
2021/08/05 07:01:40;;;;;;;11.45;9.18;;;17.00;99.90;;;;;;5061157;28;20045;-62
2021/08/05 07:04:06;;;;;;;10.15;8.63;;;17.10;99.90;;;;;;5056660;28;20174;-63
2021/08/05 07:06:32;;;;;;;11.70;8.77;;;17.10;99.90;;;;;;5057691;28;20033;-62
2021/08/05 07:08:58;;;;;;;8.57;7.63;;;17.20;99.90;;;;;;5056871;28;20074;-62
2021/08/05 07:11:24;;;;;;;10.98;8.85;;;17.20;99.90;;;;;;5057629;28;20460;-62
2021/08/05 07:13:49;;;;;;;9.82;7.88;;;17.20;99.90;;;;;;5063991;28;20052;-61
2021/08/05 07:16:15;;;;;;;10.70;8.27;;;17.30;99.90;;;;;;5062682;28;20181;-62
2021/08/05 07:18:41;;;;;;;10.18;8.45;;;17.30;99.90;;;;;;5054722;28;20048;-63
2021/08/05 07:21:08;;;;;;;12.85;8.20;;;17.40;99.90;;;;;;5063572;28;20060;-60
2021/08/05 07:23:33;;;;;;;13.27;7.75;;;17.70;99.90;;;;;;5063109;28;20076;-61
2021/08/05 07:25:59;;;;;;;8.32;7.03;;;18.00;99.90;;;;;;5059580;28;20404;-60
2021/08/05 07:28:25;;;;;;;9.63;7.82;;;18.30;99.90;;;;;;5064800;28;20056;-60
2021/08/05 07:30:52;;;;;;;10.30;6.43;;;18.60;99.90;;;;;;5071071;28;20041;-61
2021/08/05 07:33:18;;;;;;;10.87;7.20;;;18.70;99.90;;;;;;5060749;28;20488;-61
2021/08/05 07:35:44;;;;;;;7.90;6.50;;;18.80;99.90;;;;;;5065685;28;20990;-61
2021/08/05 07:38:10;;;;;;;7.55;5.60;;;18.60;99.90;;;;;;5064176;28;20044;-61
2021/08/05 07:40:36;;;;;;;8.45;6.13;;;18.80;99.90;;;;;;5066512;28;20057;-61
2021/08/05 07:43:02;;;;;;;7.55;4.78;;;19.10;99.90;;;;;;5072472;28;20136;-61
2021/08/05 07:45:28;;;;;;;7.22;5.03;;;19.50;99.90;;;;;;5065948;28;20044;-61
2021/08/05 07:47:53;;;;;;;5.50;3.75;;;19.70;99.90;;;;;;5063791;28;20108;-61
2021/08/05 07:50:19;;;;;;;8.70;3.92;;;19.90;99.90;;;;;;5066259;28;20037;-61
2021/08/05 07:52:45;;;;;;;4.57;2.72;;;20.20;99.90;;;;;;5061139;28;20049;-61
2021/08/05 07:55:12;;;;;;;4.22;2.70;;;20.30;99.90;;;;;;5057979;28;20045;-61
2021/08/05 07:57:38;;;;;;;4.63;3.60;;;20.50;99.90;;;;;;5061383;28;20045;-61
2021/08/05 08:00:05;;;;;;;4.63;2.95;;;20.10;99.90;;;;;;5061210;28;20045;-61
2021/08/05 08:02:31;;;;;;;3.85;2.25;;;20.40;99.90;;;;;;5067363;28;20044;-61
2021/08/05 08:04:57;;;;;;;4.45;3.00;;;20.50;99.90;;;;;;5061905;28;20040;-61
2021/08/05 08:07:23;;;;;;;3.85;2.75;;;20.70;99.90;;;;;;5064161;28;20051;-61
2021/08/05 08:09:49;;;;;;;5.30;2.75;;;20.80;99.90;;;;;;5061237;28;20041;-61
2021/08/05 08:12:15;;;;;;;5.47;3.47;;;20.90;99.90;;;;;;5058180;28;20041;-61
2021/08/05 08:14:41;;;;;;;3.60;2.90;;;21.00;99.90;;;;;;5056884;28;20049;-62
2021/08/05 08:17:07;;;;;;;5.13;3.13;;;21.10;99.90;;;;;;5053676;28;20046;-61
2021/08/05 08:19:32;;;;;;;3.97;2.60;;;21.20;99.90;;;;;;5076238;28;20054;-61
2021/08/05 08:22:00;;;;;;;5.57;3.00;;;21.30;99.90;;;;;;5058500;28;20037;-61
2021/08/05 08:24:27;;;;;;;4.70;3.15;;;21.40;99.90;;;;;;5062593;28;20492;-61
2021/08/05 08:26:53;;;;;;;4.95;2.95;;;21.60;99.90;;;;;;5055604;28;20084;-61
2021/08/05 08:29:18;;;;;;;4.35;2.72;;;21.60;99.90;;;;;;5057429;28;20056;-61
2021/08/05 08:31:44;;;;;;;4.13;3.15;;;21.70;99.90;;;;;;5060238;28;20051;-61
2021/08/05 08:34:10;;;;;;;5.57;3.47;;;21.60;99.90;;;;;;5068271;28;20041;-61
2021/08/05 08:36:36;;;;;;;5.65;3.38;;;21.80;99.90;;;;;;5060480;28;20048;-61
2021/08/05 08:39:03;;;;;;;5.15;2.55;;;21.80;99.90;;;;;;5061595;28;20092;-61
2021/08/05 08:41:30;;;;;;;3.33;3.00;;;21.60;99.90;;;;;;5065377;28;20052;-61
2021/08/05 08:43:56;;;;;;;3.60;3.30;;;21.50;99.90;;;;;;5061818;28;20049;-61
2021/08/05 08:46:24;;;;;;;4.90;3.08;;;21.60;99.90;;;;;;5060459;28;20048;-60
2021/08/05 08:48:54;;;;;;;4.72;2.70;;;21.90;99.90;;;;;;5062095;28;20433;-61
2021/08/05 08:51:21;;;;;;;5.65;2.90;;;22.10;99.90;;;;;;5057998;28;20065;-61
2021/08/05 08:53:51;;;;;;;4.80;2.72;;;22.00;99.90;;;;;;5066124;28;20045;-61
2021/08/05 08:56:21;;;;;;;4.80;2.60;;;22.10;99.90;;;;;;5067081;28;20036;-62
2021/08/05 08:58:47;;;;;;;9.68;3.08;;;22.10;99.90;;;;;;5062691;28;20065;-61
2021/08/05 09:01:13;;;;;;;5.72;3.17;;;22.00;99.90;;;;;;5065143;28;20087;-61
2021/08/05 09:03:40;;;;;;;4.70;2.95;;;21.80;99.90;;;;;;5057308;28;20056;-62
2021/08/05 09:06:05;;;;;;;3.58;2.90;;;22.00;99.90;;;;;;5072161;28;20067;-61
2021/08/05 09:08:32;;;;;;;5.78;2.72;;;21.90;99.90;;;;;;5058905;28;20049;-62
2021/08/05 09:10:58;;;;;;;3.72;2.97;;;21.80;99.90;;;;;;5063608;28;20051;-62
2021/08/05 09:13:23;;;;;;;3.30;2.88;;;21.70;99.90;;;;;;5064444;28;20072;-61
2021/08/05 09:15:49;;;;;;;6.75;3.65;;;22.00;99.90;;;;;;5069339;28;20401;-61
2021/08/05 09:18:32;;;;;;;4.10;3.65;;;22.10;99.90;;;;;;5061007;28;20048;-61
2021/08/05 09:21:12;;;;;;;4.30;3.53;;;22.10;99.90;;;;;;5065725;28;20047;-61
2021/08/05 09:23:50;;;;;;;5.65;3.60;;;22.20;99.90;;;;;;5062635;28;20057;-61
2021/08/05 09:26:23;;;;;;;;;;;22.30;99.90;;;;;;5063515;28;20037;-61
2021/08/05 09:29:19;;;;;;;3.35;3.05;;;22.40;99.90;;;;;;5057801;28;19943;-61
2021/08/05 09:31:53;;;;;;;6.90;4.00;;;22.50;99.90;;;;;;5051861;28;20056;-61
2021/08/05 09:34:22;;;;;;;4.78;4.00;;;22.60;99.90;;;;;;5062057;28;20045;-61
2021/08/05 09:36:58;;;;;;;6.65;4.55;;;22.50;99.90;;;;;;5065561;28;20072;-62
2021/08/05 09:39:27;;;;;;;6.00;4.38;;;22.40;99.90;;;;;;5058101;28;20048;-60
2021/08/05 09:42:01;;;;;;;8.07;3.60;;;22.30;99.90;;;;;;5058246;28;20188;-61
2021/08/05 09:44:48;;;;;;;6.15;4.18;;;22.40;99.90;;;;;;5067229;28;20103;-60
2021/08/05 09:47:17;;;;;;;11.80;4.00;;;22.50;99.90;;;;;;5056168;28;20068;-60
2021/08/05 09:49:46;;;;;;;5.10;3.58;;;22.60;99.90;;;;;;5063598;28;20491;-60
2021/08/05 09:52:14;;;;;;;3.95;2.80;;;22.70;99.90;;;;;;5060129;28;20045;-61
2021/08/05 09:54:48;;;;;;;3.45;2.70;;;22.90;99.90;;;;;;5060245;28;20045;-60
2021/08/05 09:57:24;;;;;;;4.45;2.63;;;23.00;99.90;;;;;;5059072;28;20106;-62
2021/08/05 10:00:01;;;;;;;4.22;3.40;;;22.90;99.90;;;;;;5058590;28;20060;-62
2021/08/05 10:02:41;;;;;;;5.32;3.17;;;23.00;99.90;;;;;;5060055;28;20048;-62
2021/08/05 10:05:25;;;;;;;4.68;2.97;;;22.90;99.90;;;;;;5059625;28;20135;-61
2021/08/05 10:07:53;;;;;;;3.10;2.33;;;23.10;99.90;;;;;;5054962;28;20045;-61
2021/08/05 10:10:25;;;;;;;3.78;2.92;;;23.10;99.90;;;;;;5061112;28;20048;-62
2021/08/05 10:12:51;;;;;;;2.55;2.20;;;22.90;99.90;;;;;;5060286;28;20084;-61
2021/08/05 10:15:18;;;;;;;2.28;1.85;;;23.10;99.90;;;;;;5063237;28;20048;-62
2021/08/05 10:17:45;;;;;;;4.18;2.42;;;23.30;99.90;;;;;;5063471;28;20044;-62
2021/08/05 10:20:13;;;;;;;2.95;2.13;;;23.00;99.90;;;;;;5061078;28;20041;-61
2021/08/05 10:22:40;;;;;;;9.18;2.38;;;23.30;99.90;;;;;;5059083;28;20048;-62
2021/08/05 10:25:09;;;;;;;3.90;2.00;;;23.30;99.90;;;;;;5063213;28;20052;-62
2021/08/05 10:27:36;;;;;;;2.95;1.95;;;23.30;99.90;;;;;;5062106;28;20045;-61
2021/08/05 10:30:06;;;;;;;4.32;2.38;;;23.20;99.90;;;;;;5059879;28;20041;-61
2021/08/05 10:32:33;;;;;;;2.38;2.03;;;23.40;99.90;;;;;;5062263;28;20037;-62
2021/08/05 10:34:59;;;;;;;3.38;2.20;;;23.50;98.90;;;;;;5057547;28;20044;-61
2021/08/05 10:37:26;;;;;;;4.22;2.22;;;23.20;99.70;;;;;;5060960;28;20040;-62
2021/08/05 10:39:52;;;;;;;5.95;2.67;;;23.40;99.90;;;;;;5060775;28;20120;-62
2021/08/05 10:42:19;;;;;;;3.05;2.30;;;23.50;99.90;;;;;;5059967;28;20049;-61
2021/08/05 10:44:47;;;;;;;2.90;2.50;;;23.70;99.90;;;;;;5061261;28;20041;-61
2021/08/05 10:47:19;;;;;;;2.72;2.45;;;23.60;98.70;;;;;;5060873;28;20485;-61
2021/08/05 10:49:47;;;;;;;3.15;2.53;;;23.40;99.30;;;;;;5065177;28;20040;-62
2021/08/05 10:52:38;;;;;;;4.65;2.42;;;23.40;99.90;;;;;;5065029;28;20041;-62
2021/08/05 10:55:17;;;;;;;3.58;2.33;;;23.40;99.90;;;;;;5057729;28;20055;-62
2021/08/05 10:57:45;;;;;;;3.58;2.33;;;23.60;99.60;;;;;;5064765;28;20041;-62
2021/08/05 11:00:16;;;;;;;2.92;2.60;;;23.70;99.90;;;;;;5067527;28;20045;-61
2021/08/05 11:02:49;;;;;;;15.50;2.53;;;23.70;99.40;;;;;;5061310;28;20098;-61
2021/08/05 11:05:23;;;;;;;6.68;2.15;;;23.70;99.20;;;;;;5058935;28;20068;-60
2021/08/05 11:08:15;;;;;;;6.50;2.35;;;23.90;99.90;;;;;;5058151;28;20049;-61
2021/08/05 11:10:41;;;;;;;3.08;2.53;;;23.70;99.40;;;;;;5063030;28;20044;-62
2021/08/05 11:13:07;;;;;;;3.75;1.70;;;24.10;99.90;;;;;;5064415;28;20045;-61
2021/08/05 11:15:33;;;;;;;1.65;1.50;;;24.30;97.50;;;;;;5055049;28;20506;-61
2021/08/05 11:18:17;;;;;;;2.17;1.40;;;24.50;94.90;;;;;;5059216;28;20033;-62
2021/08/05 11:20:50;;;;;;;2.65;1.73;;;24.70;94.20;;;;;;5053628;28;20140;-61
2021/08/05 11:23:25;;;;;;;2.42;1.75;;;24.70;92.60;;;;;;5052133;28;20048;-61
2021/08/05 11:25:51;;;;;;;2.78;1.48;;;25.00;95.60;;;;;;5060799;28;20049;-61
2021/08/05 11:28:30;;;;;;;6.72;1.73;;;24.70;93.90;;;;;;5063918;28;20052;-61
2021/08/05 11:30:57;;;;;;;3.22;1.35;;;25.00;94.10;;;;;;5052223;28;20124;-61
2021/08/05 11:36:21;;;;;;;2.67;1.35;;;25.40;92.10;;;;;;5064279;28;20056;-61
2021/08/05 11:39:11;;;;;;;2.65;1.65;;;25.60;92.80;;;;;;5060832;28;20045;-62
2021/08/05 11:41:48;;;;;;;3.17;1.40;;;25.90;90.60;;;;;;5063748;28;20052;-61
2021/08/05 11:44:26;;;;;;;3.28;1.75;;;26.20;86.10;;;;;;5056306;28;20048;-61
2021/08/05 11:47:21;;;;;;;3.22;1.60;;;25.60;86.20;;;;;;5064475;28;20045;-61
2021/08/05 11:49:52;;;;;;;6.07;2.03;;;26.10;90.10;;;;;;5057159;28;20056;-61
2021/08/05 11:52:21;;;;;;;3.03;2.03;;;26.30;80.50;;;;;;5061524;28;20045;-61
2021/08/05 11:54:57;;;;;;;3.08;1.70;;;26.90;78.00;;;;;;5054994;28;20049;-61
2021/08/05 11:57:24;;;;;;;3.00;1.40;;;27.00;75.80;;;;;;5047339;28;20052;-61
2021/08/05 11:59:54;;;;;;;4.50;1.33;;;27.40;69.70;;;;;;5054840;28;20055;-61
2021/08/05 12:02:24;;;;;;;2.35;0.93;;;27.10;65.80;;;;;;5045208;28;20064;-61
2021/08/05 12:04:53;;;;;;;1.70;1.30;;;27.20;54.70;;;;;;5053725;28;20476;-61
2021/08/05 12:07:32;;;;;;;3.72;1.67;;;27.60;61.50;;;;;;5060613;28;20048;-61
2021/08/05 12:10:03;;;;;;;1.98;1.67;;;27.90;62.30;;;;;;5059630;28;20131;-61
2021/08/05 12:12:43;;;;;;;1.83;1.30;;;28.20;58.60;;;;;;5057006;28;20048;-61
2021/08/05 12:15:12;;;;;;;2.95;1.42;;;28.80;63.40;;;;;;5059434;28;20061;-61
2021/08/05 12:17:40;;;;;;;2.13;1.63;;;28.30;57.30;;;;;;5060376;28;20045;-61
2021/08/05 12:20:09;;;;;;;2.08;1.70;;;28.80;60.80;;;;;;5058585;28;20042;-62
2021/08/05 12:22:41;;;;;;;2.80;1.45;;;28.80;56.60;;;;;;5054703;28;20045;-62
2021/08/05 12:25:22;;;;;;;2.67;1.45;;;29.20;60.00;;;;;;5058319;28;20112;-61
2021/08/05 12:28:03;;;;;;;2.83;1.60;;;29.70;55.20;;;;;;5054241;28;20045;-62
2021/08/05 12:31:03;;;;;;;6.38;1.52;;;29.90;52.80;;;;;;5055894;28;20045;-62
2021/08/05 12:33:40;;;;;;;3.28;1.35;;;30.00;52.00;;;;;;5028111;28;20092;-62
2021/08/05 12:36:12;;;;;;;2.75;1.52;;;29.90;51.80;;;;;;5028775;28;20114;-61
2021/08/05 12:38:49;;;;;;;3.22;1.02;;;29.80;52.40;;;;;;5028667;28;20037;-61
2021/08/05 12:41:39;;;;;;;4.93;1.20;;;29.00;52.30;;;;;;5027997;28;20045;-62
2021/08/05 12:44:09;;;;;;;2.40;1.10;;;28.70;47.90;;;;;;5039634;28;20054;-61
2021/08/05 12:46:36;;;;;;;10.43;1.33;;;29.30;49.20;;;;;;5027355;28;20478;-62
2021/08/05 12:49:03;;;;;;;0.95;0.80;;;28.40;46.00;;;;;;5034206;28;20103;-62
2021/08/05 12:51:31;;;;;;;1.67;1.25;;;27.60;47.40;;;;;;5039995;28;20068;-61